sensor_id;sensor_type;location;lat;lon;timestamp;pressure;altitude;pressure_sealevel;temperature;humidity
65997;BME280;52765;52.258;21.052;2023-03-14T00:02:16;99020.09;;;9.73;78.56
65997;BME280;52765;52.258;21.052;2023-03-14T00:04:42;99015.44;;;9.67;78.76
65997;BME280;52765;52.258;21.052;2023-03-14T00:07:11;99009.06;;;9.68;78.44
65997;BME280;52765;52.258;21.052;2023-03-14T00:09:37;99019.31;;;9.64;79.21
65997;BME280;52765;52.258;21.052;2023-03-14T00:12:03;99023.25;;;9.61;79.21
65997;BME280;52765;52.258;21.052;2023-03-14T00:14:29;99000.03;;;9.60;79.21
65997;BME280;52765;52.258;21.052;2023-03-14T00:16:55;99017.56;;;9.56;79.87
65997;BME280;52765;52.258;21.052;2023-03-14T00:19:20;99004.69;;;9.52;79.50
65997;BME280;52765;52.258;21.052;2023-03-14T00:21:46;98990.50;;;9.43;79.95
65997;BME280;52765;52.258;21.052;2023-03-14T00:24:12;98996.69;;;9.43;80.27
65997;BME280;52765;52.258;21.052;2023-03-14T00:26:38;99006.97;;;9.40;80.98
65997;BME280;52765;52.258;21.052;2023-03-14T00:29:03;98993.25;;;9.35;81.08
65997;BME280;52765;52.258;21.052;2023-03-14T00:31:29;98998.81;;;9.33;81.38
65997;BME280;52765;52.258;21.052;2023-03-14T00:33:54;98995.81;;;9.28;81.65
65997;BME280;52765;52.258;21.052;2023-03-14T00:36:20;98984.25;;;9.28;81.57
65997;BME280;52765;52.258;21.052;2023-03-14T00:38:48;98975.69;;;9.24;81.93
65997;BME280;52765;52.258;21.052;2023-03-14T00:41:18;98974.03;;;9.23;81.63
65997;BME280;52765;52.258;21.052;2023-03-14T00:43:45;98968.19;;;9.19;82.57
65997;BME280;52765;52.258;21.052;2023-03-14T00:46:11;98969.09;;;9.12;82.15
65997;BME280;52765;52.258;21.052;2023-03-14T00:48:36;98961.88;;;9.12;82.10
65997;BME280;52765;52.258;21.052;2023-03-14T00:51:07;98963.25;;;9.08;82.92
65997;BME280;52765;52.258;21.052;2023-03-14T00:53:38;98960.94;;;9.05;82.58
65997;BME280;52765;52.258;21.052;2023-03-14T00:56:05;98949.25;;;8.98;82.64
65997;BME280;52765;52.258;21.052;2023-03-14T00:58:31;98937.53;;;8.91;83.00
65997;BME280;52765;52.258;21.052;2023-03-14T01:00:57;98946.63;;;8.89;83.11
65997;BME280;52765;52.258;21.052;2023-03-14T01:03:22;98943.09;;;8.89;82.79
65997;BME280;52765;52.258;21.052;2023-03-14T01:05:49;98925.31;;;8.88;82.39
65997;BME280;52765;52.258;21.052;2023-03-14T01:08:15;98939.94;;;8.85;82.67
65997;BME280;52765;52.258;21.052;2023-03-14T01:10:41;98935.31;;;8.79;82.95
65997;BME280;52765;52.258;21.052;2023-03-14T01:13:07;98933.78;;;8.77;82.70
65997;BME280;52765;52.258;21.052;2023-03-14T01:15:34;98921.19;;;8.77;82.41
65997;BME280;52765;52.258;21.052;2023-03-14T01:17:59;98925.97;;;8.67;83.05
65997;BME280;52765;52.258;21.052;2023-03-14T01:20:25;98928.03;;;8.65;82.47
65997;BME280;52765;52.258;21.052;2023-03-14T01:22:51;98926.16;;;8.65;82.19
65997;BME280;52765;52.258;21.052;2023-03-14T01:25:16;98928.03;;;8.65;82.08
65997;BME280;52765;52.258;21.052;2023-03-14T01:27:42;98919.31;;;8.63;81.90
65997;BME280;52765;52.258;21.052;2023-03-14T01:30:08;98926.50;;;8.62;81.44
65997;BME280;52765;52.258;21.052;2023-03-14T01:32:34;98924.69;;;8.63;81.94
65997;BME280;52765;52.258;21.052;2023-03-14T01:35:00;98929.38;;;8.61;81.62
65997;BME280;52765;52.258;21.052;2023-03-14T01:37:26;98931.72;;;8.64;80.79
65997;BME280;52765;52.258;21.052;2023-03-14T01:39:51;98921.72;;;8.58;80.78
65997;BME280;52765;52.258;21.052;2023-03-14T01:42:16;98926.41;;;8.56;81.14
65997;BME280;52765;52.258;21.052;2023-03-14T01:44:52;98924.75;;;8.55;81.64
65997;BME280;52765;52.258;21.052;2023-03-14T01:47:18;98926.94;;;8.51;81.45
65997;BME280;52765;52.258;21.052;2023-03-14T01:49:46;98918.22;;;8.49;81.18
65997;BME280;52765;52.258;21.052;2023-03-14T01:52:20;98916.56;;;8.48;81.09
65997;BME280;52765;52.258;21.052;2023-03-14T01:54:54;98912.56;;;8.44;80.96
65997;BME280;52765;52.258;21.052;2023-03-14T01:57:35;98919.94;;;8.42;81.68
65997;BME280;52765;52.258;21.052;2023-03-14T02:00:07;98907.34;;;8.42;81.28
65997;BME280;52765;52.258;21.052;2023-03-14T02:02:38;98908.41;;;8.33;81.24
65997;BME280;52765;52.258;21.052;2023-03-14T02:05:05;98914.78;;;8.32;81.17
65997;BME280;52765;52.258;21.052;2023-03-14T02:07:45;98899.16;;;8.36;80.80
65997;BME280;52765;52.258;21.052;2023-03-14T02:10:11;98906.84;;;8.39;81.10
65997;BME280;52765;52.258;21.052;2023-03-14T02:12:37;98891.78;;;8.38;80.89
65997;BME280;52765;52.258;21.052;2023-03-14T02:15:04;98902.53;;;8.38;80.56
65997;BME280;52765;52.258;21.052;2023-03-14T02:17:30;98891.47;;;8.32;81.20
65997;BME280;52765;52.258;21.052;2023-03-14T02:22:38;98901.53;;;8.30;81.41
65997;BME280;52765;52.258;21.052;2023-03-14T02:27:47;98889.22;;;8.21;81.39
65997;BME280;52765;52.258;21.052;2023-03-14T02:30:21;98883.16;;;8.19;81.31
65997;BME280;52765;52.258;21.052;2023-03-14T02:32:49;98862.91;;;8.17;81.48
65997;BME280;52765;52.258;21.052;2023-03-14T02:35:22;98864.78;;;8.16;81.05
65997;BME280;52765;52.258;21.052;2023-03-14T02:40:37;98844.84;;;8.10;80.68
65997;BME280;52765;52.258;21.052;2023-03-14T02:43:03;98850.69;;;8.14;80.98
65997;BME280;52765;52.258;21.052;2023-03-14T02:48:15;98827.41;;;8.14;80.77
65997;BME280;52765;52.258;21.052;2023-03-14T02:50:42;98835.25;;;8.16;79.78
65997;BME280;52765;52.258;21.052;2023-03-14T02:53:08;98829.22;;;8.14;79.51
65997;BME280;52765;52.258;21.052;2023-03-14T02:55:34;98829.22;;;8.14;79.07
65997;BME280;52765;52.258;21.052;2023-03-14T02:57:59;98828.88;;;8.17;78.80
65997;BME280;52765;52.258;21.052;2023-03-14T03:00:25;98820.66;;;8.19;78.14
65997;BME280;52765;52.258;21.052;2023-03-14T03:02:50;98829.22;;;8.14;78.23
65997;BME280;52765;52.258;21.052;2023-03-14T03:05:16;98821.19;;;8.14;78.36
65997;BME280;52765;52.258;21.052;2023-03-14T03:07:41;98818.97;;;8.18;78.14
65997;BME280;52765;52.258;21.052;2023-03-14T03:10:07;98810.63;;;8.12;78.06
65997;BME280;52765;52.258;21.052;2023-03-14T03:12:33;98805.13;;;8.06;78.75
65997;BME280;52765;52.258;21.052;2023-03-14T03:14:58;98805.53;;;8.03;78.98
65997;BME280;52765;52.258;21.052;2023-03-14T03:17:24;98810.94;;;7.94;79.26
65997;BME280;52765;52.258;21.052;2023-03-14T03:19:49;98805.81;;;7.85;79.62
65997;BME280;52765;52.258;21.052;2023-03-14T03:22:15;98826.03;;;7.87;79.64
65997;BME280;52765;52.258;21.052;2023-03-14T03:24:40;98838.31;;;7.82;80.01
65997;BME280;52765;52.258;21.052;2023-03-14T03:27:06;98833.47;;;7.77;80.23
65997;BME280;52765;52.258;21.052;2023-03-14T03:29:31;98822.28;;;7.73;80.72
65997;BME280;52765;52.258;21.052;2023-03-14T03:31:56;98813.75;;;7.70;80.34
65997;BME280;52765;52.258;21.052;2023-03-14T03:34:22;98830.16;;;7.75;79.89
65997;BME280;52765;52.258;21.052;2023-03-14T03:36:47;98823.97;;;7.74;80.05
65997;BME280;52765;52.258;21.052;2023-03-14T03:39:13;98828.34;;;7.67;80.63
65997;BME280;52765;52.258;21.052;2023-03-14T03:41:38;98821.53;;;7.56;81.05
65997;BME280;52765;52.258;21.052;2023-03-14T03:44:04;98818.00;;;7.56;81.38
65997;BME280;52765;52.258;21.052;2023-03-14T03:46:31;98810.69;;;7.50;81.70
65997;BME280;52765;52.258;21.052;2023-03-14T03:49:00;98812.53;;;7.41;82.32
65997;BME280;52765;52.258;21.052;2023-03-14T03:51:26;98807.72;;;7.36;82.64
65997;BME280;52765;52.258;21.052;2023-03-14T03:53:51;98811.25;;;7.29;82.83
65997;BME280;52765;52.258;21.052;2023-03-14T03:56:17;98813.47;;;7.17;83.04
65997;BME280;52765;52.258;21.052;2023-03-14T03:58:42;98798.91;;;7.19;82.78
65997;BME280;52765;52.258;21.052;2023-03-14T04:01:09;98816.47;;;7.22;83.11
65997;BME280;52765;52.258;21.052;2023-03-14T04:03:36;98825.19;;;7.16;83.47
65997;BME280;52765;52.258;21.052;2023-03-14T04:06:09;98808.63;;;7.12;83.50
65997;BME280;52765;52.258;21.052;2023-03-14T04:08:35;98813.50;;;7.09;83.25
65997;BME280;52765;52.258;21.052;2023-03-14T04:11:02;98818.19;;;7.07;83.84
65997;BME280;52765;52.258;21.052;2023-03-14T04:13:28;98797.00;;;6.89;84.10
65997;BME280;52765;52.258;21.052;2023-03-14T04:15:54;98827.91;;;6.99;84.06
65997;BME280;52765;52.258;21.052;2023-03-14T04:18:23;98829.59;;;7.00;83.92
65997;BME280;52765;52.258;21.052;2023-03-14T04:20:56;98826.44;;;6.97;84.14
65997;BME280;52765;52.258;21.052;2023-03-14T04:23:24;98811.19;;;6.89;84.29
65997;BME280;52765;52.258;21.052;2023-03-14T04:25:52;98820.75;;;6.92;84.33
65997;BME280;52765;52.258;21.052;2023-03-14T04:28:18;98805.50;;;6.92;83.87
65997;BME280;52765;52.258;21.052;2023-03-14T04:30:43;98805.19;;;6.87;83.99
65997;BME280;52765;52.258;21.052;2023-03-14T04:33:10;98819.78;;;6.84;84.27
65997;BME280;52765;52.258;21.052;2023-03-14T04:35:38;98815.91;;;6.87;83.91
65997;BME280;52765;52.258;21.052;2023-03-14T04:38:04;98828.28;;;6.88;84.29
65997;BME280;52765;52.258;21.052;2023-03-14T04:40:29;98816.25;;;6.84;84.46
65997;BME280;52765;52.258;21.052;2023-03-14T04:42:55;98812.91;;;6.82;84.34
65997;BME280;52765;52.258;21.052;2023-03-14T04:45:20;98806.72;;;6.81;84.45
65997;BME280;52765;52.258;21.052;2023-03-14T04:47:46;98804.69;;;6.83;84.64
65997;BME280;52765;52.258;21.052;2023-03-14T04:50:11;98801.03;;;6.84;84.29
65997;BME280;52765;52.258;21.052;2023-03-14T04:52:37;98788.66;;;6.83;84.57
65997;BME280;52765;52.258;21.052;2023-03-14T04:55:03;98785.78;;;6.85;84.98
65997;BME280;52765;52.258;21.052;2023-03-14T04:57:28;98773.72;;;6.89;84.54
65997;BME280;52765;52.258;21.052;2023-03-14T04:59:54;98768.84;;;6.93;83.82
65997;BME280;52765;52.258;21.052;2023-03-14T05:02:20;98762.16;;;6.97;83.67
65997;BME280;52765;52.258;21.052;2023-03-14T05:04:46;98762.66;;;7.00;83.19
65997;BME280;52765;52.258;21.052;2023-03-14T05:07:11;98755.41;;;7.09;82.49
65997;BME280;52765;52.258;21.052;2023-03-14T05:09:36;98754.25;;;7.12;81.82
65997;BME280;52765;52.258;21.052;2023-03-14T05:12:02;98759.25;;;7.15;82.03
65997;BME280;52765;52.258;21.052;2023-03-14T05:14:28;98749.03;;;7.18;81.66
65997;BME280;52765;52.258;21.052;2023-03-14T05:16:53;98743.16;;;7.23;81.45
65997;BME280;52765;52.258;21.052;2023-03-14T05:19:18;98736.91;;;7.31;80.79
65997;BME280;52765;52.258;21.052;2023-03-14T05:21:44;98738.59;;;7.32;80.62
65997;BME280;52765;52.258;21.052;2023-03-14T05:24:09;98733.41;;;7.30;80.23
65997;BME280;52765;52.258;21.052;2023-03-14T05:26:35;98736.44;;;7.27;80.99
65997;BME280;52765;52.258;21.052;2023-03-14T05:29:00;98739.41;;;7.32;80.22
65997;BME280;52765;52.258;21.052;2023-03-14T05:31:26;98750.00;;;7.26;80.73
65997;BME280;52765;52.258;21.052;2023-03-14T05:33:51;98743.28;;;7.30;80.93
65997;BME280;52765;52.258;21.052;2023-03-14T05:36:16;98738.59;;;7.32;80.63
65997;BME280;52765;52.258;21.052;2023-03-14T05:38:42;98736.88;;;7.39;79.96
65997;BME280;52765;52.258;21.052;2023-03-14T05:41:08;98737.38;;;7.34;79.58
65997;BME280;52765;52.258;21.052;2023-03-14T05:43:33;98719.97;;;7.38;79.44
65997;BME280;52765;52.258;21.052;2023-03-14T05:45:59;98708.06;;;7.41;78.83
65997;BME280;52765;52.258;21.052;2023-03-14T05:48:24;98712.88;;;7.46;78.69
65997;BME280;52765;52.258;21.052;2023-03-14T05:50:58;98701.94;;;7.55;78.50
65997;BME280;52765;52.258;21.052;2023-03-14T05:53:24;98701.59;;;7.58;78.22
65997;BME280;52765;52.258;21.052;2023-03-14T05:55:52;98700.53;;;7.68;77.20
65997;BME280;52765;52.258;21.052;2023-03-14T05:58:17;98694.91;;;7.77;76.57
65997;BME280;52765;52.258;21.052;2023-03-14T06:00:43;98689.47;;;7.86;75.55
65997;BME280;52765;52.258;21.052;2023-03-14T06:03:08;98673.50;;;7.92;75.64
65997;BME280;52765;52.258;21.052;2023-03-14T06:05:34;98673.19;;;8.10;74.58
65997;BME280;52765;52.258;21.052;2023-03-14T06:07:59;98677.47;;;8.20;73.52
65997;BME280;52765;52.258;21.052;2023-03-14T06:10:25;98680.72;;;8.30;73.21
65997;BME280;52765;52.258;21.052;2023-03-14T06:12:50;98664.91;;;8.35;72.66
65997;BME280;52765;52.258;21.052;2023-03-14T06:15:16;98669.53;;;8.41;72.76
65997;BME280;52765;52.258;21.052;2023-03-14T06:17:41;98660.13;;;8.45;72.43
65997;BME280;52765;52.258;21.052;2023-03-14T06:20:08;98658.66;;;8.43;71.75
65997;BME280;52765;52.258;21.052;2023-03-14T06:22:33;98667.59;;;8.35;71.92
65997;BME280;52765;52.258;21.052;2023-03-14T06:24:58;98667.41;;;8.37;72.47
65997;BME280;52765;52.258;21.052;2023-03-14T06:27:24;98659.34;;;8.37;72.18
65997;BME280;52765;52.258;21.052;2023-03-14T06:29:49;98664.03;;;8.43;72.17
65997;BME280;52765;52.258;21.052;2023-03-14T06:32:15;98681.47;;;8.39;73.19
65997;BME280;52765;52.258;21.052;2023-03-14T06:34:40;98664.19;;;8.41;72.10
65997;BME280;52765;52.258;21.052;2023-03-14T06:37:06;98665.00;;;8.42;71.75
65997;BME280;52765;52.258;21.052;2023-03-14T06:39:31;98659.63;;;8.42;72.21
65997;BME280;52765;52.258;21.052;2023-03-14T06:41:57;98662.63;;;8.47;72.04
65997;BME280;52765;52.258;21.052;2023-03-14T06:44:22;98666.91;;;8.56;70.93
65997;BME280;52765;52.258;21.052;2023-03-14T06:46:48;98660.59;;;8.64;71.24
65997;BME280;52765;52.258;21.052;2023-03-14T06:49:13;98666.91;;;8.71;71.56
65997;BME280;52765;52.258;21.052;2023-03-14T06:51:39;98656.53;;;8.83;70.50
65997;BME280;52765;52.258;21.052;2023-03-14T06:54:04;98651.69;;;8.93;69.89
65997;BME280;52765;52.258;21.052;2023-03-14T06:56:30;98658.00;;;9.22;69.08
65997;BME280;52765;52.258;21.052;2023-03-14T06:58:55;98645.16;;;9.39;68.10
65997;BME280;52765;52.258;21.052;2023-03-14T07:01:26;98652.84;;;9.63;67.32
65997;BME280;52765;52.258;21.052;2023-03-14T07:03:52;98652.28;;;9.68;66.54
65997;BME280;52765;52.258;21.052;2023-03-14T07:06:18;98647.28;;;9.87;66.31
65997;BME280;52765;52.258;21.052;2023-03-14T07:08:43;98639.06;;;9.95;65.30
65997;BME280;52765;52.258;21.052;2023-03-14T07:11:09;98644.41;;;10.16;64.50
65997;BME280;52765;52.258;21.052;2023-03-14T07:13:37;98669.69;;;10.22;64.12
65997;BME280;52765;52.258;21.052;2023-03-14T07:16:02;98673.28;;;10.29;62.96
65997;BME280;52765;52.258;21.052;2023-03-14T07:18:28;98681.72;;;10.26;63.18
65997;BME280;52765;52.258;21.052;2023-03-14T07:20:53;98694.41;;;10.32;63.41
65997;BME280;52765;52.258;21.052;2023-03-14T07:23:19;98696.09;;;10.33;63.43
65997;BME280;52765;52.258;21.052;2023-03-14T07:25:44;98677.88;;;10.35;62.91
65997;BME280;52765;52.258;21.052;2023-03-14T07:28:10;98678.59;;;10.44;62.98
65997;BME280;52765;52.258;21.052;2023-03-14T07:30:35;98677.38;;;10.53;63.13
65997;BME280;52765;52.258;21.052;2023-03-14T07:33:00;98677.72;;;10.79;62.34
65997;BME280;52765;52.258;21.052;2023-03-14T07:35:26;98684.28;;;10.98;61.42
65997;BME280;52765;52.258;21.052;2023-03-14T07:37:51;98675.22;;;11.19;60.98
65997;BME280;52765;52.258;21.052;2023-03-14T07:40:17;98679.66;;;11.40;59.59
65997;BME280;52765;52.258;21.052;2023-03-14T07:42:42;98681.16;;;11.49;59.32
65997;BME280;52765;52.258;21.052;2023-03-14T07:45:09;98696.91;;;11.59;59.10
65997;BME280;52765;52.258;21.052;2023-03-14T07:47:35;98697.09;;;11.57;58.37
65997;BME280;52765;52.258;21.052;2023-03-14T07:50:01;98683.22;;;11.60;58.09
65997;BME280;52765;52.258;21.052;2023-03-14T07:52:27;98671.22;;;11.76;57.84
65997;BME280;52765;52.258;21.052;2023-03-14T07:54:53;98671.06;;;11.91;57.05
65997;BME280;52765;52.258;21.052;2023-03-14T07:57:18;98675.19;;;12.00;57.02
65997;BME280;52765;52.258;21.052;2023-03-14T07:59:43;98666.09;;;12.01;56.35
65997;BME280;52765;52.258;21.052;2023-03-14T08:02:12;98661.31;;;12.17;56.25
65997;BME280;52765;52.258;21.052;2023-03-14T08:04:39;98660.66;;;12.35;55.73
65997;BME280;52765;52.258;21.052;2023-03-14T08:07:05;98664.38;;;12.40;55.19
65997;BME280;52765;52.258;21.052;2023-03-14T08:09:30;98667.06;;;12.54;55.08
65997;BME280;52765;52.258;21.052;2023-03-14T08:11:55;98671.81;;;12.72;55.10
65997;BME280;52765;52.258;21.052;2023-03-14T08:14:21;98678.88;;;12.80;54.05
65997;BME280;52765;52.258;21.052;2023-03-14T08:16:55;98673.00;;;12.96;54.34
65997;BME280;52765;52.258;21.052;2023-03-14T08:19:20;98676.47;;;13.10;53.91
65997;BME280;52765;52.258;21.052;2023-03-14T08:21:46;98674.00;;;13.02;53.18
65997;BME280;52765;52.258;21.052;2023-03-14T08:24:11;98679.44;;;12.95;53.66
65997;BME280;52765;52.258;21.052;2023-03-14T08:26:36;98681.09;;;13.03;53.74
65997;BME280;52765;52.258;21.052;2023-03-14T08:29:02;98676.69;;;13.08;53.48
65997;BME280;52765;52.258;21.052;2023-03-14T08:31:29;98678.97;;;13.11;53.69
65997;BME280;52765;52.258;21.052;2023-03-14T08:33:57;98677.50;;;13.09;53.77
65997;BME280;52765;52.258;21.052;2023-03-14T08:36:23;98686.47;;;13.09;53.51
65997;BME280;52765;52.258;21.052;2023-03-14T08:38:48;98705.56;;;13.14;53.59
65997;BME280;52765;52.258;21.052;2023-03-14T08:41:14;98695.94;;;13.25;53.07
65997;BME280;52765;52.258;21.052;2023-03-14T08:43:39;98685.78;;;13.34;53.00
65997;BME280;52765;52.258;21.052;2023-03-14T08:46:05;98687.41;;;13.35;52.79
65997;BME280;52765;52.258;21.052;2023-03-14T08:48:30;98700.72;;;13.37;52.59
65997;BME280;52765;52.258;21.052;2023-03-14T08:50:57;98678.03;;;13.44;52.61
65997;BME280;52765;52.258;21.052;2023-03-14T08:53:22;98689.75;;;13.63;52.59
65997;BME280;52765;52.258;21.052;2023-03-14T08:55:54;98671.34;;;13.79;51.62
65997;BME280;52765;52.258;21.052;2023-03-14T08:58:19;98686.22;;;13.95;51.37
65997;BME280;52765;52.258;21.052;2023-03-14T09:00:45;98672.59;;;14.08;51.03
65997;BME280;52765;52.258;21.052;2023-03-14T09:03:10;98672.84;;;14.25;51.45
65997;BME280;52765;52.258;21.052;2023-03-14T09:05:36;98673.47;;;14.27;50.86
65997;BME280;52765;52.258;21.052;2023-03-14T09:08:03;98668.47;;;13.99;50.93
65997;BME280;52765;52.258;21.052;2023-03-14T09:10:29;98675.41;;;13.95;51.29
65997;BME280;52765;52.258;21.052;2023-03-14T09:12:54;98668.25;;;14.00;51.21
65997;BME280;52765;52.258;21.052;2023-03-14T09:15:20;98671.16;;;14.05;51.18
65997;BME280;52765;52.258;21.052;2023-03-14T09:17:45;98659.09;;;14.01;51.28
65997;BME280;52765;52.258;21.052;2023-03-14T09:20:11;98664.53;;;14.01;51.50
65997;BME280;52765;52.258;21.052;2023-03-14T09:22:36;98657.63;;;14.05;51.19
65997;BME280;52765;52.258;21.052;2023-03-14T09:25:05;98650.00;;;14.21;50.49
65997;BME280;52765;52.258;21.052;2023-03-14T09:27:31;98651.97;;;14.32;50.15
65997;BME280;52765;52.258;21.052;2023-03-14T09:29:56;98638.53;;;14.44;50.96
65997;BME280;52765;52.258;21.052;2023-03-14T09:32:21;98638.94;;;14.66;50.42
65997;BME280;52765;52.258;21.052;2023-03-14T09:34:47;98630.38;;;14.88;49.43
65997;BME280;52765;52.258;21.052;2023-03-14T09:37:13;98628.03;;;14.91;48.99
65997;BME280;52765;52.258;21.052;2023-03-14T09:39:40;98616.47;;;15.14;48.41
65997;BME280;52765;52.258;21.052;2023-03-14T09:42:07;98627.72;;;15.30;48.37
65997;BME280;52765;52.258;21.052;2023-03-14T09:44:37;98625.28;;;15.40;47.69
65997;BME280;52765;52.258;21.052;2023-03-14T09:47:11;98616.97;;;15.53;47.61
65997;BME280;52765;52.258;21.052;2023-03-14T09:49:40;98626.72;;;15.43;47.65
65997;BME280;52765;52.258;21.052;2023-03-14T09:52:33;98617.69;;;15.49;47.50
65997;BME280;52765;52.258;21.052;2023-03-14T09:55:05;98603.06;;;15.62;47.63
65997;BME280;52765;52.258;21.052;2023-03-14T09:57:34;98598.78;;;15.84;47.07
65997;BME280;52765;52.258;21.052;2023-03-14T10:00:06;98587.13;;;15.96;46.46
65997;BME280;52765;52.258;21.052;2023-03-14T10:02:41;98596.53;;;16.05;45.96
65997;BME280;52765;52.258;21.052;2023-03-14T10:05:19;98581.69;;;16.07;45.77
65997;BME280;52765;52.258;21.052;2023-03-14T10:07:45;98584.06;;;16.04;45.53
65997;BME280;52765;52.258;21.052;2023-03-14T10:10:17;98582.84;;;16.12;45.62
65997;BME280;52765;52.258;21.052;2023-03-14T10:12:45;98576.38;;;16.13;45.30
65997;BME280;52765;52.258;21.052;2023-03-14T10:15:13;98583.31;;;16.20;45.22
65997;BME280;52765;52.258;21.052;2023-03-14T10:17:50;98588.06;;;16.13;45.51
65997;BME280;52765;52.258;21.052;2023-03-14T10:20:49;98582.50;;;15.96;45.81
65997;BME280;52765;52.258;21.052;2023-03-14T10:23:30;98591.63;;;15.71;46.20
65997;BME280;52765;52.258;21.052;2023-03-14T10:26:13;98598.84;;;15.66;46.76
65997;BME280;52765;52.258;21.052;2023-03-14T10:28:47;98589.03;;;15.65;46.66
65997;BME280;52765;52.258;21.052;2023-03-14T10:31:13;98600.38;;;15.73;46.63
65997;BME280;52765;52.258;21.052;2023-03-14T10:33:40;98599.66;;;15.66;46.66
65997;BME280;52765;52.258;21.052;2023-03-14T10:36:19;98584.91;;;15.62;46.63
65997;BME280;52765;52.258;21.052;2023-03-14T10:38:49;98584.25;;;15.48;46.88
65997;BME280;52765;52.258;21.052;2023-03-14T10:41:26;98580.72;;;15.48;47.15
65997;BME280;52765;52.258;21.052;2023-03-14T10:43:57;98586.06;;;15.54;46.96
65997;BME280;52765;52.258;21.052;2023-03-14T10:46:25;98585.00;;;15.56;47.07
65997;BME280;52765;52.258;21.052;2023-03-14T10:48:53;98572.63;;;15.60;46.88
65997;BME280;52765;52.258;21.052;2023-03-14T10:51:26;98564.47;;;15.60;47.00
65997;BME280;52765;52.258;21.052;2023-03-14T10:54:13;98566.00;;;15.44;47.20
65997;BME280;52765;52.258;21.052;2023-03-14T10:56:39;98570.66;;;15.36;47.75
65997;BME280;52765;52.258;21.052;2023-03-14T10:59:12;98567.47;;;15.28;47.88
65997;BME280;52765;52.258;21.052;2023-03-14T11:09:49;98567.19;;;15.60;47.39
65997;BME280;52765;52.258;21.052;2023-03-14T11:15:13;98567.06;;;15.54;47.66
65997;BME280;52765;52.258;21.052;2023-03-14T11:23:16;98574.78;;;15.27;47.94
65997;BME280;52765;52.258;21.052;2023-03-14T11:30:55;98588.84;;;15.06;48.34
65997;BME280;52765;52.258;21.052;2023-03-14T11:33:34;98601.88;;;14.97;48.55
65997;BME280;52765;52.258;21.052;2023-03-14T11:38:32;98592.28;;;14.83;49.15
65997;BME280;52765;52.258;21.052;2023-03-14T11:40:59;98583.91;;;14.84;48.77
65997;BME280;52765;52.258;21.052;2023-03-14T11:43:30;98561.69;;;14.75;48.83
65997;BME280;52765;52.258;21.052;2023-03-14T11:46:05;98560.94;;;14.68;49.85
65997;BME280;52765;52.258;21.052;2023-03-14T11:48:43;98560.13;;;14.68;50.02
65997;BME280;52765;52.258;21.052;2023-03-14T11:51:21;98570.97;;;14.68;49.54
65997;BME280;52765;52.258;21.052;2023-03-14T11:56:42;98565.41;;;14.63;49.67
65997;BME280;52765;52.258;21.052;2023-03-14T11:59:18;98582.41;;;14.70;49.57
65997;BME280;52765;52.258;21.052;2023-03-14T12:01:58;98582.84;;;14.85;49.23
65997;BME280;52765;52.258;21.052;2023-03-14T12:10:14;98585.44;;;15.41;48.11
65997;BME280;52765;52.258;21.052;2023-03-14T12:12:39;98582.41;;;15.49;48.10
65997;BME280;52765;52.258;21.052;2023-03-14T12:15:18;98557.25;;;16.07;47.06
65997;BME280;52765;52.258;21.052;2023-03-14T12:17:44;98552.00;;;16.41;46.35
65997;BME280;52765;52.258;21.052;2023-03-14T12:20:18;98566.78;;;16.45;46.38
65997;BME280;52765;52.258;21.052;2023-03-14T12:22:46;98572.59;;;16.25;46.61
65997;BME280;52765;52.258;21.052;2023-03-14T12:25:28;98570.59;;;16.09;47.25
65997;BME280;52765;52.258;21.052;2023-03-14T12:35:43;98574.44;;;15.05;49.97
65997;BME280;52765;52.258;21.052;2023-03-14T12:38:29;98587.13;;;14.93;50.11
65997;BME280;52765;52.258;21.052;2023-03-14T12:41:06;98590.31;;;14.71;51.01
65997;BME280;52765;52.258;21.052;2023-03-14T12:43:37;98573.38;;;14.57;51.35
65997;BME280;52765;52.258;21.052;2023-03-14T12:48:32;98573.75;;;14.42;51.90
65997;BME280;52765;52.258;21.052;2023-03-14T12:51:03;98585.84;;;14.40;51.83
65997;BME280;52765;52.258;21.052;2023-03-14T12:59:23;98605.59;;;14.22;53.61
65997;BME280;52765;52.258;21.052;2023-03-14T13:02:10;98600.09;;;14.10;54.55
65997;BME280;52765;52.258;21.052;2023-03-14T13:05:04;98616.66;;;13.95;55.48
65997;BME280;52765;52.258;21.052;2023-03-14T13:13:17;98634.78;;;13.38;61.87
65997;BME280;52765;52.258;21.052;2023-03-14T13:15:40;98619.28;;;13.13;65.16
65997;BME280;52765;52.258;21.052;2023-03-14T13:18:13;98617.44;;;13.07;65.43
65997;BME280;52765;52.258;21.052;2023-03-14T13:20:45;98622.03;;;13.00;66.45
65997;BME280;52765;52.258;21.052;2023-03-14T13:23:29;98637.16;;;13.14;69.50
65997;BME280;52765;52.258;21.052;2023-03-14T13:25:56;98631.97;;;13.12;69.45
65997;BME280;52765;52.258;21.052;2023-03-14T13:28:22;98631.56;;;13.02;71.46
65997;BME280;52765;52.258;21.052;2023-03-14T13:30:49;98637.69;;;12.91;72.43
65997;BME280;52765;52.258;21.052;2023-03-14T13:33:21;98636.06;;;12.76;72.36
65997;BME280;52765;52.258;21.052;2023-03-14T13:35:59;98634.63;;;12.61;74.38
65997;BME280;52765;52.258;21.052;2023-03-14T13:38:28;98628.00;;;12.63;74.78
65997;BME280;52765;52.258;21.052;2023-03-14T13:40:56;98634.03;;;12.52;76.13
65997;BME280;52765;52.258;21.052;2023-03-14T13:48:28;98631.31;;;12.58;78.93
65997;BME280;52765;52.258;21.052;2023-03-14T13:51:05;98622.84;;;12.48;79.70
65997;BME280;52765;52.258;21.052;2023-03-14T13:53:55;98625.13;;;12.45;80.03
65997;BME280;52765;52.258;21.052;2023-03-14T13:56:23;98629.72;;;12.44;79.88
65997;BME280;52765;52.258;21.052;2023-03-14T13:58:50;98623.06;;;12.33;81.51
65997;BME280;52765;52.258;21.052;2023-03-14T14:01:36;98636.78;;;12.18;83.54
65997;BME280;52765;52.258;21.052;2023-03-14T14:04:15;98628.72;;;12.12;84.27
65997;BME280;52765;52.258;21.052;2023-03-14T14:06:47;98620.19;;;12.15;84.15
65997;BME280;52765;52.258;21.052;2023-03-14T14:09:20;98622.91;;;12.15;84.85
65997;BME280;52765;52.258;21.052;2023-03-14T14:14:23;98617.28;;;12.10;85.32